Time;durP1;ratioP1;P1;durP2;ratioP2;P2;SDS_P1;SDS_P2;PMS_P1;PMS_P2;Temp;Humidity;BMP_temperature;BMP_pressure;BME280_temperature;BME280_humidity;BME280_pressure;Samples;Min_cycle;Max_cycle;Signal;HPM_P1;HPM_P2
2023/02/10 00:01:37;;;;;;;33.53;22.93;;;;;;;2.52;79.66;102492.63;5051973;28;20231;-77
2023/02/10 00:04:03;;;;;;;43.70;24.83;;;;;;;2.26;80.62;102484.53;5051927;28;20208;-77
2023/02/10 00:06:30;;;;;;;37.43;23.30;;;;;;;2.33;81.24;102463.38;5052168;28;20202;-77
2023/02/10 00:08:59;;;;;;;43.43;24.23;;;;;;;2.32;80.92;102459.03;5051965;28;20233;-77
2023/02/10 00:14:08;;;;;;;27.00;21.13;;;;;;;2.55;80.19;102454.06;5050573;28;20297;-77
2023/02/10 00:16:34;;;;;;;35.27;23.63;;;;;;;2.55;80.72;102454.94;5052602;28;20206;-77
2023/02/10 00:19:03;;;;;;;40.97;24.50;;;;;;;2.65;81.00;102464.00;5052275;28;20230;-77
2023/02/10 00:21:29;;;;;;;42.17;24.80;;;;;;;2.53;80.72;102469.47;5052278;28;20252;-77
2023/02/10 00:23:56;;;;;;;36.60;24.03;;;;;;;2.63;80.63;102459.59;5052057;28;20216;-78
2023/02/10 00:26:23;;;;;;;43.37;24.60;;;;;;;2.61;80.95;102459.50;5052469;28;20217;-77
2023/02/10 00:28:49;;;;;;;30.93;23.47;;;;;;;2.68;81.41;102453.84;5052049;28;20235;-77
2023/02/10 00:31:18;;;;;;;38.70;24.40;;;;;;;2.70;81.14;102454.78;5052344;28;20266;-77
2023/02/10 00:33:45;;;;;;;39.87;23.23;;;;;;;2.78;81.09;102449.97;5052609;28;20199;-77
2023/02/10 00:36:15;;;;;;;33.03;22.63;;;;;;;2.83;81.00;102458.78;5052103;28;20267;-77
2023/02/10 00:38:42;;;;;;;36.47;23.10;;;;;;;2.84;80.77;102490.66;5051652;28;20278;-77
2023/02/10 00:41:10;;;;;;;47.27;27.07;;;;;;;2.74;80.47;102490.22;5045662;28;20212;-77
2023/02/10 00:43:39;;;;;;;44.23;26.17;;;;;;;2.78;81.12;102494.69;5047665;28;20260;-78
2023/02/10 00:46:05;;;;;;;42.80;26.43;;;;;;;2.71;81.29;102492.63;5051832;28;20575;-77
2023/02/10 00:48:32;;;;;;;43.77;26.13;;;;;;;2.69;81.88;102485.66;5051699;28;20272;-77
2023/02/10 00:50:59;;;;;;;45.10;26.53;;;;;;;2.43;82.30;102466.41;5051362;28;20625;-77
2023/02/10 00:53:27;;;;;;;42.90;27.40;;;;;;;2.42;82.39;102450.06;5052277;28;20206;-77
2023/02/10 00:55:53;;;;;;;40.63;24.77;;;;;;;2.56;82.24;102438.69;5051285;28;20272;-77
2023/02/10 00:58:20;;;;;;;43.50;27.10;;;;;;;2.66;82.05;102452.88;5051846;28;20230;-76
2023/02/10 01:00:46;;;;;;;48.60;28.20;;;;;;;2.47;82.44;102448.56;5051661;28;20286;-77
2023/02/10 01:03:13;;;;;;;50.10;27.20;;;;;;;2.42;82.59;102450.06;5051504;28;20228;-77
2023/02/10 01:05:39;;;;;;;52.50;27.83;;;;;;;2.47;83.36;102438.25;5051491;28;20210;-77
2023/02/10 01:08:06;;;;;;;51.90;26.80;;;;;;;2.47;82.80;102439.94;5051818;28;20201;-77
2023/02/10 01:10:34;;;;;;;49.70;29.20;;;;;;;2.24;83.81;102438.84;5048063;28;20206;-77
2023/02/10 01:13:01;;;;;;;43.93;27.27;;;;;;;2.29;84.62;102419.34;5051309;28;20739;-77
2023/02/10 01:15:27;;;;;;;46.53;28.17;;;;;;;2.30;84.62;102396.25;5051954;28;20419;-77
2023/02/10 01:17:54;;;;;;;55.07;28.30;;;;;;;2.39;84.28;102388.03;5051475;28;20207;-77
2023/02/10 01:20:20;;;;;;;48.77;29.70;;;;;;;2.22;84.56;102395.00;5051726;28;20202;-77
2023/02/10 01:22:47;;;;;;;55.73;29.93;;;;;;;2.20;85.12;102381.19;5050897;28;20231;-77
2023/02/10 01:25:13;;;;;;;51.97;29.10;;;;;;;2.26;85.23;102381.47;5051458;28;20206;-77
2023/02/10 01:27:41;;;;;;;52.77;29.10;;;;;;;2.24;85.62;102384.75;5051486;28;20669;-77
2023/02/10 01:30:08;;;;;;;55.60;28.97;;;;;;;2.24;86.23;102372.78;5051705;28;20232;-77
2023/02/10 01:32:36;;;;;;;54.80;28.03;;;;;;;2.25;86.02;102360.75;5051167;28;20209;-77
2023/02/10 01:35:03;;;;;;;47.83;28.40;;;;;;;2.30;86.08;102352.44;5051217;28;20915;-77
2023/02/10 01:37:30;;;;;;;57.13;29.27;;;;;;;2.15;87.00;102367.19;5051037;28;20253;-77
2023/02/10 01:39:56;;;;;;;59.87;30.47;;;;;;;2.08;87.40;102347.09;5048117;28;20230;-76
2023/02/10 01:42:23;;;;;;;56.23;30.53;;;;;;;2.15;87.55;102332.00;5051102;28;20278;-77
2023/02/10 01:45:16;;;;;;;51.83;30.63;;;;;;;1.91;89.16;102324.00;5051709;28;20209;-79
2023/02/10 01:47:44;;;;;;;61.77;29.67;;;;;;;1.96;88.82;102295.88;5052543;28;20260;-78
2023/02/10 01:50:14;;;;;;;58.63;30.63;;;;;;;2.07;88.83;102286.09;5055444;28;20650;-77
2023/02/10 01:52:42;;;;;;;57.37;30.60;;;;;;;2.08;88.99;102282.69;5055138;28;20265;-77
2023/02/10 01:55:11;;;;;;;55.57;29.83;;;;;;;2.19;88.87;102290.09;5055077;28;20214;-78
2023/02/10 01:57:39;;;;;;;55.70;28.43;;;;;;;2.25;88.44;102294.66;5054861;28;20210;-78
2023/02/10 02:00:07;;;;;;;50.57;28.70;;;;;;;2.13;88.94;102299.25;5057661;28;20235;-78
2023/02/10 02:02:36;;;;;;;56.20;29.57;;;;;;;2.11;89.30;102299.19;5058052;28;20226;-78
2023/02/10 02:05:05;;;;;;;53.97;30.27;;;;;;;2.10;88.71;102297.44;5058698;28;20210;-78
2023/02/10 02:07:37;;;;;;;57.77;30.97;;;;;;;1.98;90.16;102277.16;5058459;28;20337;-78
2023/02/10 02:10:06;;;;;;;66.60;31.37;;;;;;;2.03;90.44;102266.16;5052935;28;20585;-76
2023/02/10 02:12:42;;;;;;;44.07;28.03;;;;;;;2.15;90.26;102253.84;5057150;28;20199;-78
2023/02/10 02:15:19;;;;;;;62.97;30.20;;;;;;;2.03;90.56;102263.59;5057779;28;20740;-78
2023/02/10 02:17:55;;;;;;;57.93;31.00;;;;;;;1.98;90.94;102247.91;5057969;28;20265;-77
2023/02/10 02:20:44;;;;;;;66.00;32.77;;;;;;;1.98;91.14;102247.91;5058265;28;20730;-78
2023/02/10 02:23:25;;;;;;;56.63;31.10;;;;;;;2.05;91.49;102249.97;5057179;28;20226;-78
2023/02/10 02:26:30;;;;;;;56.37;30.10;;;;;;;1.97;91.68;102252.19;5057930;28;20229;-78
2023/02/10 02:29:17;;;;;;;56.60;30.70;;;;;;;1.93;91.19;102250.28;5056261;28;20230;-78
2023/02/10 02:31:59;;;;;;;51.43;30.93;;;;;;;1.79;92.46;102238.47;5057763;28;20213;-77
2023/02/10 02:34:33;;;;;;;65.57;32.30;;;;;;;1.85;93.29;102225.00;5057389;28;20225;-78
2023/02/10 02:37:03;;;;;;;53.43;30.10;;;;;;;2.01;92.38;102217.16;5057220;28;20208;-78
2023/02/10 02:39:29;;;;;;;49.50;29.10;;;;;;;2.12;92.19;102217.63;5056428;28;20257;-78
2023/02/10 02:42:20;;;;;;;50.93;29.47;;;;;;;2.04;92.59;102227.56;5053299;28;20652;-77
2023/02/10 02:44:51;;;;;;;51.10;29.03;;;;;;;2.17;91.73;102240.19;5057520;28;20209;-78
2023/02/10 02:47:32;;;;;;;47.23;27.00;;;;;;;2.22;91.51;102249.81;5056436;28;20615;-78
2023/02/10 02:50:12;;;;;;;51.10;27.53;;;;;;;2.10;91.37;102263.03;5056736;28;20228;-78
2023/02/10 02:52:49;;;;;;;53.73;29.40;;;;;;;1.97;91.63;102262.50;5056757;28;20611;-77
2023/02/10 02:55:26;;;;;;;59.23;31.30;;;;;;;2.09;92.13;102258.72;5053612;28;20478;-77
2023/02/10 02:57:57;;;;;;;53.13;29.67;;;;;;;2.25;91.13;102257.72;5053204;28;20202;-77
2023/02/10 03:00:28;;;;;;;60.03;29.10;;;;;;;2.34;90.67;102268.44;5053376;28;20673;-78
2023/02/10 03:02:59;;;;;;;58.63;30.03;;;;;;;2.44;89.78;102291.22;5053318;28;20228;-77
2023/02/10 03:05:33;;;;;;;51.27;29.17;;;;;;;2.50;89.14;102311.22;5053875;28;20249;-77
2023/02/10 03:07:59;;;;;;;49.97;28.77;;;;;;;2.41;88.81;102327.16;5053704;28;20219;-77
2023/02/10 03:10:26;;;;;;;46.97;26.43;;;;;;;2.45;88.75;102341.94;5049411;28;20572;-77
2023/02/10 03:12:52;;;;;;;48.67;26.07;;;;;;;2.36;88.68;102367.31;5045573;28;20252;-77
2023/02/10 03:15:19;;;;;;;48.90;29.60;;;;;;;2.30;88.86;102365.31;5033435;28;20211;-78
2023/02/10 03:17:45;;;;;;;47.70;27.93;;;;;;;2.35;88.28;102357.78;5033139;28;20261;-77
2023/02/10 03:20:13;;;;;;;50.27;28.70;;;;;;;2.42;87.94;102367.59;5033471;28;20236;-77
2023/02/10 03:22:41;;;;;;;57.73;29.10;;;;;;;2.20;88.07;102383.75;5032960;28;20648;-77
2023/02/10 03:25:08;;;;;;;43.13;27.30;;;;;;;2.18;88.59;102369.88;5033309;28;20206;-77
2023/02/10 03:27:34;;;;;;;47.43;26.57;;;;;;;2.27;88.75;102364.28;5034158;28;20206;-77
2023/02/10 03:30:01;;;;;;;44.37;26.73;;;;;;;2.28;88.13;102374.69;5032685;28;20231;-77
2023/02/10 03:32:28;;;;;;;40.20;25.77;;;;;;;2.34;87.38;102389.53;5033001;28;20233;-77
2023/02/10 03:34:54;;;;;;;46.47;25.83;;;;;;;2.36;87.18;102400.81;5033230;28;20262;-77
2023/02/10 03:37:22;;;;;;;39.67;26.00;;;;;;;2.33;86.41;102414.41;5033321;28;20209;-78
2023/02/10 03:39:48;;;;;;;36.27;24.07;;;;;;;2.34;86.46;102428.19;5033119;28;20232;-77
2023/02/10 03:42:15;;;;;;;36.33;24.90;;;;;;;2.35;86.19;102440.25;5049060;28;20557;-77
2023/02/10 03:44:41;;;;;;;42.17;26.60;;;;;;;2.39;86.66;102444.75;5032480;28;20226;-77
2023/02/10 03:47:08;;;;;;;48.53;27.57;;;;;;;2.38;86.38;102450.72;5032283;28;20211;-77
2023/02/10 03:49:34;;;;;;;47.20;27.37;;;;;;;2.29;87.17;102438.28;5032801;28;20225;-77
2023/02/10 03:52:00;;;;;;;44.40;26.37;;;;;;;2.33;87.08;102437.59;5032846;28;20212;-77
2023/02/10 03:54:28;;;;;;;43.03;25.70;;;;;;;2.39;86.75;102437.88;5032927;28;20252;-77
2023/02/10 03:56:55;;;;;;;36.27;23.90;;;;;;;2.35;86.37;102445.41;5032924;28;20259;-77
2023/02/10 03:59:25;;;;;;;38.60;25.67;;;;;;;2.37;87.07;102456.69;5032621;28;20232;-77
2023/02/10 04:01:51;;;;;;;41.80;26.03;;;;;;;2.39;86.18;102460.22;5032275;28;20245;-77
2023/02/10 04:04:18;;;;;;;42.03;24.93;;;;;;;2.41;86.21;102466.31;5032445;28;20230;-77
2023/02/10 04:06:45;;;;;;;43.73;25.77;;;;;;;2.42;86.15;102468.09;5032027;28;20294;-77
2023/02/10 04:09:11;;;;;;;40.53;24.17;;;;;;;2.47;86.57;102460.56;5032475;28;20224;-76
2023/02/10 04:11:39;;;;;;;46.60;27.77;;;;;;;2.47;86.79;102463.16;5045101;28;20203;-77
2023/02/10 04:14:05;;;;;;;49.57;27.70;;;;;;;2.53;86.97;102460.84;5052311;28;20207;-77
2023/02/10 04:16:33;;;;;;;36.70;25.03;;;;;;;2.49;86.81;102457.25;5052641;28;20214;-77
2023/02/10 04:19:00;;;;;;;39.13;25.03;;;;;;;2.52;86.45;102459.09;5052586;28;20257;-77
2023/02/10 04:21:26;;;;;;;41.00;25.97;;;;;;;2.54;86.96;102462.63;5051732;28;20204;-77
2023/02/10 04:23:53;;;;;;;41.17;25.60;;;;;;;2.46;87.00;102461.38;5052292;28;20252;-77
2023/02/10 04:26:19;;;;;;;39.20;25.37;;;;;;;2.51;87.51;102447.88;5052198;28;20211;-77
2023/02/10 04:28:47;;;;;;;43.03;26.47;;;;;;;2.46;87.80;102440.75;5051766;28;20226;-77
2023/02/10 04:31:14;;;;;;;40.53;24.33;;;;;;;2.29;88.34;102417.66;5051378;28;20206;-77
2023/02/10 04:33:40;;;;;;;44.20;27.23;;;;;;;2.37;88.44;102403.44;5052361;28;20206;-77
2023/02/10 04:36:08;;;;;;;38.47;25.20;;;;;;;2.38;89.01;102392.31;5052056;28;20266;-77
2023/02/10 04:38:34;;;;;;;46.17;25.63;;;;;;;2.40;88.99;102384.66;5051764;28;20242;-77
2023/02/10 04:41:02;;;;;;;43.13;25.40;;;;;;;2.34;89.64;102376.66;5046400;28;20613;-77
2023/02/10 04:43:29;;;;;;;38.47;24.40;;;;;;;2.40;89.23;102371.78;5051094;28;20709;-77
2023/02/10 04:45:56;;;;;;;38.20;25.20;;;;;;;2.36;90.01;102347.56;5051298;28;20256;-77
2023/02/10 04:48:23;;;;;;;46.60;25.77;;;;;;;2.36;89.63;102352.72;5051336;28;20565;-77
2023/02/10 04:50:49;;;;;;;40.13;23.73;;;;;;;2.36;89.66;102349.28;5051448;28;20209;-77
2023/02/10 04:53:16;;;;;;;43.13;24.67;;;;;;;2.36;90.07;102346.69;5051405;28;20626;-77
2023/02/10 04:55:43;;;;;;;35.67;23.40;;;;;;;2.35;90.07;102338.06;5051757;28;20272;-77
2023/02/10 04:58:09;;;;;;;37.57;24.00;;;;;;;2.17;90.88;102327.78;5054188;28;20706;-78
2023/02/10 05:00:36;;;;;;;36.33;24.27;;;;;;;2.33;90.50;102318.19;5054585;28;20210;-78
2023/02/10 05:03:03;;;;;;;33.57;22.73;;;;;;;2.30;90.81;102318.03;5054955;28;20253;-78
2023/02/10 05:05:30;;;;;;;42.23;25.43;;;;;;;2.31;91.14;102305.22;5053974;28;20205;-77
2023/02/10 05:07:57;;;;;;;32.60;23.60;;;;;;;2.26;90.57;102300.69;5051038;28;20210;-77
2023/02/10 05:10:23;;;;;;;38.03;23.63;;;;;;;2.29;90.85;102295.69;5046593;28;20196;-77
2023/02/10 05:12:49;;;;;;;39.43;24.63;;;;;;;2.33;90.68;102301.03;5048526;28;20257;-77
2023/02/10 05:15:16;;;;;;;40.20;23.17;;;;;;;2.34;90.63;102305.38;5049910;28;20207;-78
2023/02/10 05:17:42;;;;;;;36.00;22.57;;;;;;;2.33;90.50;102316.50;5051788;28;20236;-77
2023/02/10 05:20:11;;;;;;;39.07;23.07;;;;;;;2.26;91.16;102314.47;5050859;28;20243;-77
2023/02/10 05:22:38;;;;;;;37.97;23.70;;;;;;;2.27;90.92;102311.06;5052388;28;20255;-77
2023/02/10 05:25:05;;;;;;;36.73;23.53;;;;;;;2.15;91.63;102308.81;5054696;28;20287;-77
2023/02/10 05:27:32;;;;;;;35.90;24.27;;;;;;;2.26;91.63;102301.59;5055074;28;20213;-77
2023/02/10 05:29:58;;;;;;;42.27;24.07;;;;;;;2.35;91.77;102296.81;5055317;28;20739;-77
2023/02/10 05:32:25;;;;;;;38.53;23.37;;;;;;;2.49;91.23;102299.13;5055459;28;20205;-77
2023/02/10 05:34:51;;;;;;;31.87;22.17;;;;;;;2.53;90.71;102317.38;5055652;28;20213;-77
2023/02/10 05:37:19;;;;;;;31.37;21.97;;;;;;;2.55;90.03;102338.06;5055156;28;20225;-77
2023/02/10 05:39:45;;;;;;;32.40;21.67;;;;;;;2.39;90.40;102339.94;5051268;28;20283;-77
2023/02/10 05:42:12;;;;;;;36.53;22.60;;;;;;;2.44;90.39;102332.44;5043752;28;20211;-77
2023/02/10 05:44:38;;;;;;;36.57;22.63;;;;;;;2.50;90.68;102342.16;5046448;28;20374;-77
2023/02/10 05:47:05;;;;;;;40.23;24.00;;;;;;;2.49;90.97;102343.81;5051189;28;20210;-77
2023/02/10 05:49:31;;;;;;;39.67;23.83;;;;;;;2.47;91.17;102334.28;5054196;28;20234;-77
2023/02/10 05:51:59;;;;;;;32.50;21.43;;;;;;;2.57;90.91;102333.88;5054042;28;20213;-77
2023/02/10 05:54:27;;;;;;;34.03;23.03;;;;;;;2.68;90.10;102335.22;5053847;28;20256;-77
2023/02/10 05:56:53;;;;;;;39.57;23.73;;;;;;;2.70;89.65;102349.06;5054003;28;20207;-77
2023/02/10 05:59:19;;;;;;;34.40;22.77;;;;;;;2.72;89.44;102373.22;5053799;28;20226;-77
2023/02/10 06:01:46;;;;;;;40.63;24.43;;;;;;;2.81;88.94;102380.47;5054194;28;20207;-77
2023/02/10 06:04:12;;;;;;;34.87;23.67;;;;;;;2.56;89.62;102391.41;5053867;28;20657;-77
2023/02/10 06:06:39;;;;;;;42.87;24.20;;;;;;;2.54;90.39;102387.88;5054738;28;20206;-77
2023/02/10 06:09:05;;;;;;;41.50;25.10;;;;;;;2.53;90.63;102378.38;5054829;28;20655;-77
2023/02/10 06:11:33;;;;;;;40.03;24.57;;;;;;;2.63;89.79;102385.69;5054476;28;20207;-76
2023/02/10 06:14:00;;;;;;;50.60;26.40;;;;;;;2.52;90.47;102384.34;5052011;28;20281;-77
2023/02/10 06:16:26;;;;;;;37.13;24.57;;;;;;;2.66;89.72;102387.56;5054909;28;20211;-77
2023/02/10 06:18:53;;;;;;;39.27;25.33;;;;;;;2.69;89.52;102408.28;5054566;28;20227;-77
2023/02/10 06:21:20;;;;;;;40.50;25.43;;;;;;;2.56;90.28;102410.31;5054384;28;20208;-77
2023/02/10 06:23:46;;;;;;;42.50;26.93;;;;;;;2.53;90.48;102397.28;5054792;28;20221;-76
2023/02/10 06:26:13;;;;;;;44.00;25.97;;;;;;;2.50;91.07;102389.44;5054374;28;20625;-77
2023/02/10 06:28:41;;;;;;;43.43;25.83;;;;;;;2.59;90.46;102392.41;5053947;28;20285;-77
2023/02/10 06:31:08;;;;;;;53.20;26.13;;;;;;;2.45;91.09;102397.75;5054095;28;20656;-77
2023/02/10 06:33:35;;;;;;;38.67;24.67;;;;;;;2.56;90.51;102381.09;5053539;28;20556;-77
2023/02/10 06:36:03;;;;;;;42.57;25.17;;;;;;;2.63;90.56;102392.56;5054090;28;20207;-77
2023/02/10 06:38:30;;;;;;;38.40;23.97;;;;;;;2.56;90.10;102407.75;5053909;28;20226;-77
2023/02/10 06:40:56;;;;;;;50.93;25.67;;;;;;;2.55;90.67;102407.66;5054295;28;20232;-77
2023/02/10 06:43:22;;;;;;;41.40;24.77;;;;;;;2.63;90.14;102419.22;5050835;28;20280;-77
2023/02/10 06:45:50;;;;;;;43.40;26.53;;;;;;;2.71;89.80;102437.59;5053618;28;20203;-77
2023/02/10 06:48:16;;;;;;;46.50;25.80;;;;;;;2.54;90.23;102450.63;5053885;28;20230;-77
2023/02/10 06:50:43;;;;;;;47.70;25.27;;;;;;;2.52;90.27;102448.78;5053812;28;20206;-77
2023/02/10 06:53:09;;;;;;;46.77;27.13;;;;;;;2.52;90.86;102438.47;5053791;28;20214;-77
2023/02/10 06:55:36;;;;;;;50.03;26.07;;;;;;;2.38;90.98;102433.56;5053669;28;20673;-77
2023/02/10 06:58:03;;;;;;;45.47;24.80;;;;;;;2.46;90.54;102427.84;5053938;28;20210;-77
2023/02/10 07:00:31;;;;;;;42.77;25.90;;;;;;;2.47;90.98;102424.47;5053541;28;20676;-77
2023/02/10 07:02:59;;;;;;;46.37;26.00;;;;;;;2.52;90.46;102433.31;5053386;28;20198;-77
2023/02/10 07:05:26;;;;;;;48.90;25.10;;;;;;;2.52;90.61;102436.78;5053888;28;20229;-77
2023/02/10 07:07:54;;;;;;;41.47;25.30;;;;;;;2.53;89.62;102447.97;5053723;28;20213;-77
2023/02/10 07:10:21;;;;;;;35.87;23.60;;;;;;;2.53;89.49;102459.16;5053656;28;20638;-77
2023/02/10 07:12:47;;;;;;;45.70;23.83;;;;;;;2.49;89.83;102470.13;5052651;28;20232;-77
2023/02/10 07:15:14;;;;;;;42.57;23.50;;;;;;;2.50;89.92;102471.03;5050737;28;20664;-77
2023/02/10 07:17:41;;;;;;;40.57;24.97;;;;;;;2.46;89.36;102472.59;5053156;28;20206;-77
2023/02/10 07:20:10;;;;;;;45.57;26.37;;;;;;;2.53;89.38;102460.84;5053311;28;20593;-78
2023/02/10 07:22:36;;;;;;;42.87;24.93;;;;;;;2.55;89.19;102467.84;5055658;28;20630;-77
2023/02/10 07:25:03;;;;;;;36.33;23.13;;;;;;;2.55;89.12;102473.00;5056693;28;20224;-77
2023/02/10 07:27:30;;;;;;;43.40;23.73;;;;;;;2.53;89.63;102471.16;5057502;28;20210;-78
2023/02/10 07:29:56;;;;;;;42.37;26.13;;;;;;;2.49;90.81;102448.63;5037400;28;20251;-79
2023/02/10 07:32:23;;;;;;;51.17;26.00;;;;;;;2.56;91.12;102442.97;5037055;28;20218;-79
2023/02/10 07:34:49;;;;;;;38.57;24.37;;;;;;;2.55;90.68;102442.06;5037254;28;20727;-77
2023/02/10 07:37:17;;;;;;;43.17;25.70;;;;;;;2.57;91.28;102439.56;5036931;28;20210;-77
2023/02/10 07:39:43;;;;;;;47.27;26.20;;;;;;;2.66;90.87;102428.81;5036238;28;20235;-80
2023/02/10 07:42:10;;;;;;;51.50;28.07;;;;;;;2.62;91.54;102422.63;5038388;28;20687;-79
2023/02/10 07:44:36;;;;;;;52.33;27.10;;;;;;;2.75;90.64;102426.63;5048825;28;20226;-79
2023/02/10 07:47:02;;;;;;;57.10;32.08;;;;;;;2.68;91.80;102433.22;5053690;28;20432;-78
2023/02/10 07:49:29;;;;;;;47.63;28.37;;;;;;;2.76;91.81;102423.25;5053526;28;20229;-82
2023/02/10 07:51:55;;;;;;;54.43;29.13;;;;;;;2.77;92.05;102415.59;5053190;28;20209;-83
2023/02/10 07:54:23;;;;;;;49.20;27.43;;;;;;;2.84;91.56;102411.56;5053313;28;20213;-83
2023/02/10 07:56:49;;;;;;;55.00;27.17;;;;;;;2.92;91.15;102420.53;5053540;28;20238;-81
2023/02/10 07:59:16;;;;;;;45.23;25.83;;;;;;;2.99;90.78;102437.16;5053047;28;20642;-81
2023/02/10 08:01:42;;;;;;;51.47;26.63;;;;;;;2.85;91.70;102438.22;5041008;28;20229;-82
2023/02/10 08:04:09;;;;;;;48.97;26.60;;;;;;;2.92;91.96;102425.69;5022909;28;20229;-79
2023/02/10 08:06:35;;;;;;;47.27;27.17;;;;;;;3.00;91.38;102431.19;5023572;28;20205;-80
2023/02/10 08:09:02;;;;;;;49.70;27.13;;;;;;;2.99;91.28;102424.25;5020217;28;20721;-81
2023/02/10 08:11:30;;;;;;;47.47;27.63;;;;;;;2.92;91.54;102441.16;5015706;28;20210;-81
2023/02/10 08:13:57;;;;;;;43.97;25.67;;;;;;;3.06;90.97;102435.75;5026868;28;20257;-84
2023/02/10 08:16:23;;;;;;;53.80;27.40;;;;;;;3.11;90.69;102450.63;5028175;28;20199;-82
2023/02/10 08:18:50;;;;;;;49.43;26.83;;;;;;;3.21;90.39;102459.66;5025222;28;20221;-82
2023/02/10 08:21:16;;;;;;;50.07;27.53;;;;;;;3.15;90.34;102470.56;5024562;28;20206;-82
2023/02/10 08:23:42;;;;;;;47.73;27.57;;;;;;;3.22;90.33;102471.72;5023738;28;20208;-81
2023/02/10 08:26:12;;;;;;;53.23;27.00;;;;;;;3.25;90.60;102474.44;5026003;28;20270;-81
2023/02/10 08:28:41;;;;;;;49.50;28.03;;;;;;;3.30;90.58;102477.22;5024580;28;20225;-81
2023/02/10 08:31:09;;;;;;;49.90;26.40;;;;;;;3.34;90.46;102466.22;5023301;28;20196;-81
2023/02/10 08:33:36;;;;;;;49.80;27.87;;;;;;;3.33;90.26;102485.97;5024662;28;20212;-80
2023/02/10 08:36:05;;;;;;;50.60;29.03;;;;;;;3.26;90.62;102483.94;5024214;28;20252;-78
2023/02/10 08:38:31;;;;;;;53.67;28.60;;;;;;;3.31;90.56;102487.63;5027833;28;20295;-79
2023/02/10 08:40:59;;;;;;;57.07;29.93;;;;;;;3.32;90.74;102486.78;5022874;28;20654;-81
2023/02/10 08:43:26;;;;;;;54.10;28.83;;;;;;;3.37;91.06;102485.31;5025467;28;20691;-79
2023/02/10 08:45:56;;;;;;;60.47;30.60;;;;;;;3.44;90.90;102481.28;5024911;28;20234;-79
2023/02/10 08:48:23;;;;;;;60.60;29.60;;;;;;;3.45;90.75;102489.91;5022215;28;20229;-79
2023/02/10 08:50:49;;;;;;;61.43;32.17;;;;;;;3.46;91.06;102484.81;5022756;28;20707;-78
2023/02/10 08:53:16;;;;;;;57.17;29.30;;;;;;;3.53;90.94;102488.56;5021435;28;20202;-79
2023/02/10 08:55:42;;;;;;;48.30;27.83;;;;;;;3.66;90.70;102489.94;5026991;28;20252;-78
2023/02/10 08:58:09;;;;;;;61.40;31.80;;;;;;;3.69;90.55;102497.84;5022796;28;20199;-79
2023/02/10 09:00:36;;;;;;;64.30;31.60;;;;;;;3.73;90.53;102502.31;5022738;28;20264;-80
2023/02/10 09:03:03;;;;;;;67.00;31.73;;;;;;;3.58;90.71;102505.09;5021617;28;20200;-81
2023/02/10 09:05:30;;;;;;;63.23;30.77;;;;;;;3.70;90.91;102500.47;5023655;28;20628;-78
2023/02/10 09:07:56;;;;;;;60.63;32.60;;;;;;;3.67;90.23;102502.94;5022028;28;20244;-79
2023/02/10 09:10:22;;;;;;;63.30;32.33;;;;;;;3.77;90.39;102510.25;5026059;28;20210;-80
2023/02/10 09:12:49;;;;;;;58.53;32.53;;;;;;;3.90;90.29;102518.50;5023526;28;20733;-79
2023/02/10 09:15:15;;;;;;;68.33;34.03;;;;;;;4.02;89.63;102533.66;5027547;28;20247;-80
2023/02/10 09:17:42;;;;;;;64.97;33.67;;;;;;;4.06;89.36;102545.88;5022415;28;20206;-79
2023/02/10 09:20:11;;;;;;;67.10;34.53;;;;;;;4.15;88.98;102554.91;5022458;28;20640;-79
2023/02/10 09:22:37;;;;;;;64.73;33.30;;;;;;;4.03;89.26;102571.59;5021502;28;20299;-80
2023/02/10 09:25:04;;;;;;;65.80;33.40;;;;;;;4.14;89.04;102565.16;5023103;28;20223;-78
2023/02/10 09:27:30;;;;;;;67.70;34.13;;;;;;;4.01;89.33;102578.41;5021041;28;20204;-80
2023/02/10 09:29:57;;;;;;;64.43;33.60;;;;;;;4.02;88.91;102575.88;5023351;28;20227;-79
2023/02/10 09:32:23;;;;;;;69.50;34.07;;;;;;;4.01;89.73;102573.25;5023853;28;20248;-79
2023/02/10 09:34:50;;;;;;;70.43;34.63;;;;;;;3.92;89.86;102568.53;5024175;28;20249;-79
2023/02/10 09:37:18;;;;;;;69.63;36.70;;;;;;;3.78;90.56;102545.56;5022142;28;20873;-79
2023/02/10 09:39:44;;;;;;;71.83;34.70;;;;;;;3.83;90.45;102542.34;5025719;28;20233;-79
2023/02/10 09:42:21;;;;;;;74.40;33.83;;;;;;;3.80;90.58;102547.34;5025326;28;20257;-79
2023/02/10 09:44:53;;;;;;;69.70;34.10;;;;;;;3.83;91.31;102532.00;5027855;28;20223;-79
2023/02/10 09:47:39;;;;;;;71.90;35.33;;;;;;;3.92;90.86;102525.50;5022803;28;20424;-80
2023/02/10 09:50:26;;;;;;;66.67;33.87;;;;;;;3.93;90.43;102540.19;5020671;28;20625;-79
2023/02/10 09:53:06;;;;;;;73.03;34.07;;;;;;;3.88;90.47;102544.28;5021458;28;20618;-79
2023/02/10 09:55:35;;;;;;;67.53;34.80;;;;;;;4.02;89.86;102560.34;5022152;28;20204;-80
2023/02/10 09:58:11;;;;;;;73.93;35.07;;;;;;;4.14;89.42;102565.16;5020665;28;20263;-79
2023/02/10 10:00:41;;;;;;;67.77;34.03;;;;;;;4.25;89.10;102574.25;5022556;28;20247;-79
2023/02/10 10:03:14;;;;;;;78.83;36.97;;;;;;;4.38;89.19;102583.41;5024549;28;20201;-80
2023/02/10 10:05:47;;;;;;;67.57;34.80;;;;;;;4.45;88.54;102598.34;5024646;28;20310;-80
2023/02/10 10:08:24;;;;;;;75.37;36.13;;;;;;;4.46;87.70;102623.41;5026268;28;20234;-80
2023/02/10 10:10:52;;;;;;;69.63;34.80;;;;;;;4.43;88.29;102614.63;5036133;28;20210;-79
2023/02/10 10:13:23;;;;;;;69.73;34.20;;;;;;;4.54;88.03;102627.19;5037068;28;20207;-80
2023/02/10 10:16:01;;;;;;;73.10;33.97;;;;;;;4.38;88.23;102620.50;5035380;28;20213;-80
2023/02/10 10:18:39;;;;;;;70.20;33.97;;;;;;;4.38;87.89;102623.06;5027119;28;20260;-81
2023/02/10 10:21:11;;;;;;;73.13;34.87;;;;;;;4.20;88.25;102637.78;5026390;28;20258;-80
2023/02/10 10:23:53;;;;;;;75.63;36.97;;;;;;;4.10;88.74;102618.44;5029206;28;20204;-83
2023/02/10 10:26:39;;;;;;;75.00;35.83;;;;;;;4.18;88.62;102611.00;5030910;28;20279;-84
2023/02/10 10:29:20;;;;;;;68.27;34.97;;;;;;;4.22;88.79;102602.53;5029630;28;20224;-80
2023/02/10 10:31:54;;;;;;;71.40;35.03;;;;;;;4.21;88.95;102595.63;5015262;28;20587;-81
2023/02/10 10:34:25;;;;;;;73.60;35.47;;;;;;;4.18;88.77;102603.22;5026320;28;20205;-81
2023/02/10 10:36:55;;;;;;;78.07;37.80;;;;;;;4.08;88.94;102590.75;5030742;28;20252;-82
2023/02/10 10:39:32;;;;;;;71.23;33.70;;;;;;;4.23;88.51;102588.81;5030984;28;20636;-82
2023/02/10 10:42:04;;;;;;;69.50;35.33;;;;;;;4.00;89.53;102587.84;5033585;28;20194;-82
2023/02/10 10:44:35;;;;;;;74.03;35.50;;;;;;;3.88;89.95;102575.28;5037127;28;20215;-81
2023/02/10 10:47:08;;;;;;;81.57;35.90;;;;;;;3.73;90.67;102560.00;5031607;28;20200;-82
2023/02/10 10:49:35;;;;;;;69.17;33.93;;;;;;;3.86;90.64;102542.44;5030221;28;20222;-80
2023/02/10 10:52:01;;;;;;;71.83;34.47;;;;;;;3.79;90.97;102523.22;5027904;28;20212;-82
2023/02/10 10:54:31;;;;;;;71.63;32.10;;;;;;;3.83;90.98;102519.09;5029792;28;20615;-82
2023/02/10 10:57:02;;;;;;;72.80;32.90;;;;;;;3.83;90.49;102509.63;5028080;28;20199;-82
2023/02/10 10:59:34;;;;;;;60.77;31.13;;;;;;;4.07;90.58;102508.88;5031358;28;20248;-82
2023/02/10 11:02:11;;;;;;;71.17;31.90;;;;;;;4.13;90.05;102511.72;5032121;28;20253;-82
2023/02/10 11:04:41;;;;;;;67.97;32.30;;;;;;;4.25;89.09;102519.09;5029411;28;20227;-82
2023/02/10 11:07:10;;;;;;;63.90;31.80;;;;;;;4.27;89.41;102539.00;5030803;28;20251;-82
2023/02/10 11:09:41;;;;;;;70.37;31.13;;;;;;;4.43;88.77;102549.97;5030356;28;20218;-82
2023/02/10 11:12:16;;;;;;;53.27;29.27;;;;;;;4.56;88.30;102557.41;5031643;28;20209;-81
2023/02/10 11:14:45;;;;;;;65.07;31.70;;;;;;;4.74;87.29;102575.38;5049060;28;20362;-80
2023/02/10 11:17:26;;;;;;;61.77;31.27;;;;;;;4.85;86.57;102612.00;5056952;28;20599;-82
2023/02/10 11:19:59;;;;;;;68.57;33.00;;;;;;;4.93;85.95;102632.16;5059353;28;20230;-81
2023/02/10 11:22:25;;;;;;;57.63;30.60;;;;;;;4.85;84.59;102658.56;5059426;28;20209;-81
2023/02/10 11:24:55;;;;;;;66.70;32.40;;;;;;;4.72;85.04;102680.50;5058955;28;20205;-81
2023/02/10 11:27:22;;;;;;;77.43;36.03;;;;;;;4.83;85.53;102676.63;5058556;28;20608;-80